createdAt,value
2023-10-23T00:00:26.461Z,19.48
2023-10-23T00:02:54.970Z,19.48
2023-10-23T00:05:25.013Z,19.49
2023-10-23T00:07:53.422Z,19.48
2023-10-23T00:10:22.205Z,19.50
2023-10-23T00:12:51.895Z,19.50
2023-10-23T00:15:20.195Z,19.46
2023-10-23T00:17:49.019Z,19.48
2023-10-23T00:20:17.707Z,19.49
2023-10-23T00:22:47.664Z,19.47
2023-10-23T00:25:16.191Z,19.49
2023-10-23T00:27:44.558Z,19.48
2023-10-23T00:30:13.736Z,19.48
2023-10-23T00:32:42.875Z,19.49
2023-10-23T00:35:11.544Z,19.49
2023-10-23T00:37:39.955Z,19.24
2023-10-23T00:40:11.245Z,19.47
2023-10-23T00:42:39.763Z,19.49
2023-10-23T00:45:09.348Z,19.49
2023-10-23T00:47:37.877Z,19.50
2023-10-23T00:50:07.416Z,19.50
2023-10-23T00:52:36.192Z,19.47
2023-10-23T00:55:05.069Z,19.49
2023-10-23T00:57:35.330Z,19.37
2023-10-23T01:00:05.584Z,19.52
2023-10-23T01:02:34.568Z,19.51
2023-10-23T01:05:04.089Z,19.49
2023-10-23T01:07:32.490Z,19.49
2023-10-23T01:10:01.134Z,19.48
2023-10-23T01:12:30.462Z,19.48
2023-10-23T01:15:01.090Z,19.49
2023-10-23T01:17:30.058Z,19.48
2023-10-23T01:19:58.762Z,19.50
2023-10-23T01:22:27.622Z,19.45
2023-10-23T01:24:57.869Z,19.46
2023-10-23T01:27:27.831Z,19.46
2023-10-23T01:29:56.305Z,19.48
2023-10-23T01:32:24.792Z,19.49
2023-10-23T01:34:53.189Z,19.49
2023-10-23T01:37:21.775Z,19.50
2023-10-23T01:39:50.603Z,19.49
2023-10-23T01:42:19.026Z,19.49
2023-10-23T01:44:49.477Z,19.06
2023-10-23T01:47:18.303Z,19.49
2023-10-23T01:49:47.117Z,19.48
2023-10-23T01:52:15.999Z,19.47
2023-10-23T01:54:44.573Z,19.43
2023-10-23T01:57:13.261Z,19.45
2023-10-23T01:59:41.810Z,19.47
2023-10-23T02:02:11.539Z,19.49
2023-10-23T02:04:41.054Z,19.49
2023-10-23T02:07:09.570Z,19.48
2023-10-23T02:09:37.996Z,19.48
2023-10-23T02:12:06.790Z,19.49
2023-10-23T02:14:35.236Z,19.50
2023-10-23T02:17:03.973Z,19.48
2023-10-23T02:19:33.789Z,19.49
2023-10-23T02:22:02.663Z,19.49
2023-10-23T02:24:31.243Z,19.50
2023-10-23T02:26:59.792Z,19.37
2023-10-23T02:29:28.411Z,19.51
2023-10-23T02:31:56.878Z,19.49
2023-10-23T02:34:25.620Z,19.35
2023-10-23T02:36:55.969Z,19.50
2023-10-23T02:39:24.547Z,19.49
2023-10-23T02:41:53.133Z,19.48
2023-10-23T02:44:21.838Z,19.47
2023-10-23T02:46:52.009Z,19.49
2023-10-23T02:49:22.776Z,19.49
2023-10-23T02:51:51.313Z,19.49
2023-10-23T02:54:21.329Z,19.49
2023-10-23T02:56:49.827Z,19.49
2023-10-23T02:59:18.438Z,19.49
2023-10-23T03:01:47.422Z,19.50
2023-10-23T03:04:16.365Z,19.48
2023-10-23T03:06:44.682Z,19.48
2023-10-23T03:09:13.586Z,19.48
2023-10-23T03:11:43.669Z,19.48
2023-10-23T03:14:12.434Z,19.46
2023-10-23T03:16:41.053Z,19.48
2023-10-23T03:19:09.647Z,19.49
2023-10-23T03:21:38.109Z,19.49
2023-10-23T03:24:07.675Z,19.50
2023-10-23T03:26:36.263Z,19.49
2023-10-23T03:29:05.984Z,19.50
2023-10-23T03:31:34.675Z,19.43
2023-10-23T03:34:03.307Z,19.50
2023-10-23T03:36:32.118Z,19.51
2023-10-23T03:39:00.850Z,19.49
2023-10-23T03:41:29.378Z,19.49
2023-10-23T03:43:57.890Z,19.14
2023-10-23T03:46:27.692Z,19.49
2023-10-23T03:48:56.137Z,19.47
2023-10-23T03:51:24.992Z,19.49
2023-10-23T03:53:53.335Z,19.48
2023-10-23T03:56:21.857Z,19.27
2023-10-23T03:58:50.630Z,19.47
2023-10-23T04:01:19.290Z,19.48
2023-10-23T04:03:49.318Z,19.09
2023-10-23T04:06:17.889Z,19.48
2023-10-23T04:08:46.543Z,19.49
2023-10-23T04:11:15.815Z,19.49
2023-10-23T04:13:44.407Z,19.51
2023-10-23T04:16:13.552Z,19.52
2023-10-23T04:18:42.464Z,19.51
2023-10-23T04:21:14.774Z,19.52
2023-10-23T04:23:43.398Z,19.51
2023-10-23T04:26:11.743Z,19.52
2023-10-23T04:28:40.389Z,19.51
2023-10-23T04:31:08.710Z,19.50
2023-10-23T04:33:37.485Z,19.35
2023-10-23T04:36:06.278Z,19.44
2023-10-23T04:38:36.401Z,19.50
2023-10-23T04:41:04.888Z,19.50
2023-10-23T04:43:34.833Z,19.51
2023-10-23T04:46:03.578Z,19.50
2023-10-23T04:48:32.377Z,19.43
2023-10-23T04:51:04.844Z,19.45
2023-10-23T04:53:33.341Z,19.48
2023-10-23T04:56:07.217Z,19.48
2023-10-23T04:58:35.798Z,19.49
2023-10-23T05:01:04.783Z,19.49
2023-10-23T05:03:33.415Z,19.48
2023-10-23T05:06:02.003Z,19.50
2023-10-23T05:08:32.279Z,19.50
2023-10-23T05:11:08.691Z,19.47
2023-10-23T05:13:37.396Z,19.51
2023-10-23T05:16:06.986Z,19.51
2023-10-23T05:18:35.871Z,19.50
2023-10-23T05:21:08.596Z,19.51
2023-10-23T05:23:37.313Z,19.50
2023-10-23T05:26:05.748Z,19.43
2023-10-23T05:28:35.530Z,19.50
2023-10-23T05:31:04.124Z,19.51
2023-10-23T05:33:32.521Z,19.50
2023-10-23T05:36:05.526Z,19.51
2023-10-23T05:38:34.260Z,19.49
2023-10-23T05:41:03.571Z,19.47
2023-10-23T05:43:32.110Z,19.52
2023-10-23T05:46:05.317Z,19.49
2023-10-23T05:48:35.158Z,19.51
2023-10-23T05:51:05.108Z,19.51
2023-10-23T05:53:34.402Z,19.42
2023-10-23T05:56:05.278Z,19.51
2023-10-23T05:58:34.991Z,19.50
2023-10-23T06:01:08.582Z,19.50
2023-10-23T06:03:37.389Z,19.51
2023-10-23T06:06:06.553Z,19.49
2023-10-23T06:08:34.916Z,19.50
2023-10-23T06:11:04.057Z,19.50
2023-10-23T06:13:32.296Z,19.51
2023-10-23T06:16:04.361Z,19.51
2023-10-23T06:18:34.768Z,19.52
2023-10-23T06:21:05.725Z,19.52
2023-10-23T06:23:35.668Z,19.52
2023-10-23T06:26:04.281Z,19.52
2023-10-23T06:28:32.801Z,19.50
2023-10-23T06:31:06.888Z,19.52
2023-10-23T06:33:37.557Z,19.48
2023-10-23T06:36:07.505Z,19.52
2023-10-23T06:38:35.932Z,19.52
2023-10-23T06:41:06.315Z,19.47
2023-10-23T06:43:35.631Z,19.52
2023-10-23T06:46:05.943Z,19.52
2023-10-23T06:48:37.076Z,19.52
2023-10-23T06:51:06.486Z,19.52
2023-10-23T06:53:36.039Z,19.52
2023-10-23T06:56:04.767Z,19.53
2023-10-23T06:58:33.375Z,19.52
2023-10-23T07:01:08.166Z,19.52
2023-10-23T07:03:38.180Z,19.52
2023-10-23T07:06:08.021Z,19.52
2023-10-23T07:08:38.876Z,19.52
2023-10-23T07:11:14.383Z,19.51
2023-10-23T07:13:42.876Z,19.52
2023-10-23T07:16:11.249Z,19.51
2023-10-23T07:18:41.367Z,19.52
2023-10-23T07:21:10.665Z,19.39
2023-10-23T07:23:39.461Z,19.49
2023-10-23T07:26:12.205Z,19.51
2023-10-23T07:28:41.465Z,19.52
2023-10-23T07:31:10.266Z,19.52
2023-10-23T07:33:40.472Z,19.52
2023-10-23T07:36:11.795Z,19.52
2023-10-23T07:38:42.259Z,19.52
2023-10-23T07:41:10.916Z,19.51
2023-10-23T07:43:39.469Z,19.52
2023-10-23T07:46:16.525Z,19.52
2023-10-23T07:48:48.348Z,19.52
2023-10-23T07:51:16.629Z,19.49
2023-10-23T07:53:45.139Z,19.49
2023-10-23T07:56:14.683Z,19.52
2023-10-23T07:58:43.632Z,19.51
2023-10-23T08:01:13.524Z,19.52
2023-10-23T08:03:42.678Z,19.52
2023-10-23T08:06:16.527Z,19.49
2023-10-23T08:08:46.504Z,19.45
2023-10-23T08:11:15.740Z,19.52
2023-10-23T08:13:44.147Z,19.51
2023-10-23T08:16:13.053Z,19.15
2023-10-23T08:18:43.780Z,19.45
2023-10-23T08:21:16.205Z,19.48
2023-10-23T08:23:47.972Z,19.52
2023-10-23T08:26:16.811Z,19.35
2023-10-23T08:31:34.190Z,19.53
2023-10-23T08:34:06.098Z,19.52
2023-10-23T08:36:36.937Z,19.53
2023-10-23T08:39:05.918Z,19.52
2023-10-23T08:41:35.897Z,19.52
2023-10-23T08:44:06.184Z,19.50
2023-10-23T08:46:36.623Z,19.36
2023-10-23T08:49:05.807Z,19.52
2023-10-23T08:51:37.406Z,19.53
2023-10-23T08:54:12.348Z,19.53
2023-10-23T08:56:45.055Z,19.52
2023-10-23T08:59:14.534Z,19.52
2023-10-23T09:01:43.321Z,19.45
2023-10-23T09:04:13.730Z,19.52
2023-10-23T09:06:45.049Z,19.52
2023-10-23T09:09:14.086Z,19.51
2023-10-23T09:11:45.166Z,19.54
2023-10-23T09:14:25.741Z,19.54
2023-10-23T09:16:56.498Z,19.53
2023-10-23T09:19:35.450Z,19.44
2023-10-23T09:22:07.830Z,19.54
2023-10-23T09:24:36.422Z,19.55
2023-10-23T09:27:05.722Z,19.40
2023-10-23T09:29:34.882Z,19.53
2023-10-23T09:32:04.333Z,19.53
2023-10-23T09:34:34.630Z,19.44
2023-10-23T09:37:04.020Z,19.54
2023-10-23T09:39:39.309Z,19.52
2023-10-23T09:42:11.452Z,19.13
2023-10-23T09:44:41.032Z,19.53
2023-10-23T09:47:11.895Z,19.52
2023-10-23T09:49:44.294Z,19.53
2023-10-23T09:52:15.611Z,19.54
2023-10-23T09:54:49.827Z,19.54
2023-10-23T09:57:20.458Z,19.53
2023-10-23T09:59:55.707Z,19.46
2023-10-23T10:02:27.707Z,19.54
2023-10-23T10:05:03.641Z,19.54
2023-10-23T10:07:50.016Z,19.53
2023-10-23T10:10:21.111Z,19.54
2023-10-23T10:12:50.119Z,19.33
2023-10-23T10:15:19.024Z,19.15
2023-10-23T10:17:49.368Z,19.30
2023-10-23T10:20:20.884Z,19.53
2023-10-23T10:22:54.468Z,19.53
2023-10-23T10:25:27.177Z,19.43
2023-10-23T10:28:00.213Z,19.53
2023-10-23T10:30:47.349Z,19.52
2023-10-23T10:34:18.474Z,19.54
2023-10-23T10:36:09.986Z,19.53
2023-10-23T10:38:39.231Z,19.53
2023-10-23T10:41:17.428Z,19.53
2023-10-23T10:43:47.208Z,19.53
2023-10-23T10:46:22.279Z,19.54
2023-10-23T10:48:52.359Z,19.55
2023-10-23T10:51:24.077Z,19.54
2023-10-23T10:54:01.788Z,19.55
2023-10-23T10:56:32.433Z,19.51
2023-10-23T10:59:02.111Z,19.30
2023-10-23T11:01:31.181Z,19.55
2023-10-23T11:04:00.021Z,19.55
2023-10-23T11:06:28.465Z,19.51
2023-10-23T11:08:58.813Z,19.52
2023-10-23T11:11:28.800Z,19.49
2023-10-23T11:14:04.052Z,19.48
2023-10-23T11:16:34.522Z,19.54
2023-10-23T11:19:03.649Z,19.50
2023-10-23T11:21:34.266Z,19.49
2023-10-23T11:24:04.322Z,19.55
2023-10-23T11:26:33.143Z,19.55
2023-10-23T11:29:03.081Z,19.41
2023-10-23T11:31:31.894Z,19.56
2023-10-23T11:34:00.506Z,19.55
2023-10-23T11:36:32.836Z,19.52
2023-10-23T11:39:01.297Z,19.52
2023-10-23T11:41:30.091Z,19.56
2023-10-23T11:44:04.960Z,19.53
2023-10-23T11:46:35.177Z,19.51
2023-10-23T11:49:05.148Z,19.56
2023-10-23T11:51:33.829Z,19.55
2023-10-23T11:54:04.820Z,19.55
2023-10-23T11:56:34.064Z,19.49
2023-10-23T11:59:05.566Z,19.55
2023-10-23T12:01:33.996Z,19.48
2023-10-23T12:04:02.685Z,19.56
2023-10-23T12:06:31.890Z,19.56
2023-10-23T12:09:01.109Z,19.56
2023-10-23T12:11:30.588Z,19.56
2023-10-23T12:14:01.004Z,19.54
2023-10-23T12:16:31.919Z,19.55
2023-10-23T12:19:02.282Z,19.56
2023-10-23T12:21:31.280Z,19.55
2023-10-23T12:24:00.143Z,19.56
2023-10-23T12:26:28.817Z,19.54
2023-10-23T12:28:59.521Z,19.56
2023-10-23T12:31:28.882Z,19.56
2023-10-23T12:34:02.893Z,19.24
2023-10-23T12:36:32.248Z,19.55
2023-10-23T12:39:00.989Z,19.56
2023-10-23T12:41:29.797Z,19.55
2023-10-23T12:43:58.973Z,19.56
2023-10-23T12:46:27.535Z,19.52
2023-10-23T12:48:56.296Z,19.56
2023-10-23T12:51:27.985Z,19.56
2023-10-23T12:53:56.515Z,19.58
2023-10-23T12:56:25.319Z,19.58
2023-10-23T12:58:53.619Z,19.57
2023-10-23T13:01:22.379Z,19.59
2023-10-23T13:03:51.067Z,19.59
2023-10-23T13:06:20.375Z,19.57
2023-10-23T13:08:50.579Z,19.59
2023-10-23T13:11:19.311Z,19.58
2023-10-23T13:13:47.601Z,19.59
2023-10-23T13:16:16.048Z,19.58
2023-10-23T13:18:53.529Z,19.57
2023-10-23T13:21:33.468Z,19.56
2023-10-23T13:24:06.124Z,19.55
2023-10-23T13:26:38.689Z,19.56
2023-10-23T13:29:07.362Z,19.57
2023-10-23T13:31:35.821Z,19.53
2023-10-23T13:34:04.177Z,19.56
2023-10-23T13:36:32.438Z,19.57
2023-10-23T13:39:05.286Z,19.57
2023-10-23T13:41:35.149Z,19.57
2023-10-23T13:44:04.584Z,19.54
2023-10-23T13:46:34.417Z,19.58
2023-10-23T13:49:04.097Z,19.57
2023-10-23T13:51:32.460Z,19.57
2023-10-23T13:54:00.729Z,19.55
2023-10-23T13:56:29.155Z,19.57
2023-10-23T13:58:58.915Z,19.56
2023-10-23T14:01:27.739Z,19.57
2023-10-23T14:03:56.965Z,19.55
2023-10-23T14:06:26.537Z,19.59
2023-10-23T14:09:40.916Z,19.58
2023-10-23T14:12:00.463Z,19.59
2023-10-23T14:14:31.573Z,19.59
2023-10-23T14:17:00.324Z,19.59
2023-10-23T14:19:42.551Z,19.44
2023-10-23T14:22:14.764Z,19.59
2023-10-23T14:24:43.163Z,19.59
2023-10-23T14:27:11.446Z,19.60
2023-10-23T14:29:41.832Z,19.60
2023-10-23T14:32:10.844Z,19.60
2023-10-23T14:34:39.299Z,19.58
2023-10-23T14:37:07.842Z,19.49
2023-10-23T14:39:36.271Z,19.59
2023-10-23T14:42:04.664Z,19.58
2023-10-23T14:44:35.658Z,19.58
2023-10-23T14:47:06.003Z,19.58
2023-10-23T14:49:35.969Z,19.58
2023-10-23T14:52:04.575Z,19.57
2023-10-23T14:54:33.092Z,19.56
2023-10-23T14:57:01.701Z,19.56
2023-10-23T14:59:30.279Z,19.58
2023-10-23T15:02:00.064Z,19.59
2023-10-23T15:04:30.963Z,19.58
2023-10-23T15:07:00.987Z,19.59
2023-10-23T15:09:30.022Z,19.59
2023-10-23T15:11:58.516Z,19.55
2023-10-23T15:14:26.825Z,19.58
2023-10-23T15:16:55.570Z,19.58
2023-10-23T15:19:26.324Z,19.59
2023-10-23T15:21:56.241Z,19.39
2023-10-23T15:24:24.494Z,19.60
2023-10-23T15:26:52.812Z,19.59
2023-10-23T15:29:21.120Z,19.56
2023-10-23T15:31:49.422Z,19.48
2023-10-23T15:34:17.919Z,19.57
2023-10-23T15:36:46.357Z,19.58
2023-10-23T15:39:17.190Z,19.19
2023-10-23T15:41:45.863Z,19.59
2023-10-23T15:44:14.135Z,19.59
2023-10-23T15:46:42.810Z,19.55
2023-10-23T15:49:11.134Z,19.59
2023-10-23T15:51:39.684Z,19.59
2023-10-23T15:54:08.737Z,19.59
2023-10-23T15:56:39.625Z,19.59
2023-10-23T15:59:08.746Z,19.60
2023-10-23T16:01:37.586Z,19.60
2023-10-23T16:04:06.899Z,19.59
2023-10-23T16:06:37.882Z,19.57
2023-10-23T16:09:26.199Z,19.55
2023-10-23T16:11:57.037Z,19.59
2023-10-23T16:14:53.592Z,19.58
2023-10-23T16:17:26.465Z,19.54
2023-10-23T16:19:54.939Z,19.58
2023-10-23T16:22:24.050Z,19.58
2023-10-23T16:24:52.344Z,19.59
2023-10-23T16:27:23.257Z,19.48
2023-10-23T16:29:51.495Z,19.59
2023-10-23T16:32:19.762Z,19.51
2023-10-23T16:34:48.194Z,19.52
2023-10-23T16:37:16.456Z,19.60
2023-10-23T16:39:46.282Z,19.55
2023-10-23T16:42:14.669Z,19.59
2023-10-23T16:44:55.326Z,19.51
2023-10-23T16:47:24.621Z,19.60
2023-10-23T16:49:54.307Z,19.59
2023-10-23T16:52:22.626Z,19.57
2023-10-23T16:54:51.046Z,19.59
2023-10-23T16:57:19.391Z,19.59
2023-10-23T16:59:50.205Z,19.59
2023-10-23T17:02:18.731Z,19.59
2023-10-23T17:04:47.875Z,19.58
2023-10-23T17:07:18.269Z,19.60
2023-10-23T17:09:47.134Z,19.60
2023-10-23T17:12:15.527Z,19.57
2023-10-23T17:14:44.879Z,19.61
2023-10-23T17:17:14.676Z,19.60
2023-10-23T17:19:44.494Z,19.60
2023-10-23T17:22:13.099Z,19.60
2023-10-23T17:24:41.446Z,19.60
2023-10-23T17:27:10.583Z,19.61
2023-10-23T17:29:39.149Z,19.59
2023-10-23T17:32:09.803Z,19.55
2023-10-23T17:34:40.693Z,19.05
2023-10-23T17:37:09.114Z,19.54
2023-10-23T17:39:37.483Z,19.51
2023-10-23T17:42:06.882Z,19.56
2023-10-23T17:44:37.775Z,19.36
2023-10-23T17:47:06.163Z,19.57
2023-10-23T17:49:34.558Z,19.57
2023-10-23T17:52:05.041Z,19.56
2023-10-23T17:54:35.253Z,19.59
2023-10-23T17:57:03.896Z,19.61
2023-10-23T17:59:34.675Z,19.65
2023-10-23T18:02:03.806Z,19.66
2023-10-23T18:04:32.153Z,19.68
2023-10-23T18:07:00.508Z,19.69
2023-10-23T18:09:30.214Z,19.72
2023-10-23T18:11:58.704Z,19.72
2023-10-23T18:14:26.887Z,19.24
2023-10-23T18:16:55.273Z,19.75
2023-10-23T18:19:23.886Z,19.76
2023-10-23T18:21:52.208Z,19.77
2023-10-23T18:24:20.694Z,19.79
2023-10-23T18:26:50.692Z,19.77
2023-10-23T18:29:18.997Z,19.79
2023-10-23T18:31:47.789Z,19.78
2023-10-23T18:34:16.340Z,19.80
2023-10-23T18:36:44.633Z,19.81
2023-10-23T18:39:12.915Z,19.82
2023-10-23T18:41:41.203Z,19.82
2023-10-23T18:44:10.906Z,19.84
2023-10-23T18:46:39.525Z,19.84
2023-10-23T18:49:08.558Z,19.84
2023-10-23T18:51:36.848Z,19.86
2023-10-23T18:54:05.777Z,19.87
2023-10-23T18:56:34.646Z,19.88
2023-10-23T18:59:03.176Z,19.88
2023-10-23T19:01:33.073Z,19.87
2023-10-23T19:04:01.917Z,19.86
2023-10-23T19:06:31.872Z,19.87
2023-10-23T19:09:03.824Z,19.88
2023-10-23T19:11:33.011Z,19.89
2023-10-23T19:14:02.370Z,19.90
2023-10-23T19:16:30.960Z,19.89
2023-10-23T19:19:00.714Z,19.90
2023-10-23T19:21:29.047Z,19.88
2023-10-23T19:23:57.314Z,19.88
2023-10-23T19:26:26.603Z,19.90
2023-10-23T19:28:54.768Z,19.89
2023-10-23T19:31:26.026Z,19.87
2023-10-23T19:33:54.870Z,19.91
2023-10-23T19:36:26.093Z,19.91
2023-10-23T19:38:54.850Z,19.92
2023-10-23T19:41:29.281Z,19.91
2023-10-23T19:43:58.244Z,19.91
2023-10-23T19:46:27.144Z,19.92
2023-10-23T19:48:56.281Z,19.92
2023-10-23T19:51:26.800Z,19.94
2023-10-23T19:53:56.050Z,19.96
2023-10-23T19:56:29.615Z,19.95
2023-10-23T19:58:59.912Z,19.92
2023-10-23T20:01:28.496Z,19.93
2023-10-23T20:03:56.986Z,19.76
2023-10-23T20:06:27.070Z,19.96
2023-10-23T20:08:55.488Z,19.94
2023-10-23T20:11:23.721Z,19.97
2023-10-23T20:13:52.022Z,19.96
2023-10-23T20:16:20.392Z,19.96
2023-10-23T20:18:48.627Z,19.91
2023-10-23T20:21:17.417Z,19.96
2023-10-23T20:23:48.454Z,19.95
2023-10-23T20:26:17.855Z,19.95
2023-10-23T20:28:46.378Z,19.96
2023-10-23T20:31:16.473Z,19.96
2023-10-23T20:33:44.782Z,19.96
2023-10-23T20:36:13.409Z,19.71
2023-10-23T20:38:41.691Z,19.96
2023-10-23T20:41:18.691Z,19.96
2023-10-23T20:43:48.009Z,19.92
2023-10-23T20:46:16.716Z,19.90
2023-10-23T20:48:45.209Z,19.90
2023-10-23T20:51:14.740Z,19.89
2023-10-23T20:53:43.643Z,19.92
2023-10-23T20:56:11.868Z,19.90
2023-10-23T20:58:42.438Z,19.89
2023-10-23T21:01:10.802Z,19.66
2023-10-23T21:03:39.323Z,19.85
2023-10-23T21:06:08.380Z,19.84
2023-10-23T21:08:40.916Z,19.59
2023-10-23T21:11:09.450Z,19.63
2023-10-23T21:13:38.126Z,19.75
2023-10-23T21:16:09.078Z,19.81
2023-10-23T21:18:37.374Z,19.80
2023-10-23T21:21:06.065Z,19.79
2023-10-23T21:23:34.651Z,19.78
2023-10-23T21:26:05.076Z,19.78
2023-10-23T21:28:33.631Z,19.77
2023-10-23T21:31:02.555Z,19.70
2023-10-23T21:33:33.194Z,19.75
2023-10-23T21:36:01.494Z,19.76
2023-10-23T21:38:29.730Z,19.76
2023-10-23T21:40:57.974Z,19.75
2023-10-23T21:43:26.272Z,19.75
2023-10-23T21:46:09.387Z,19.75
2023-10-23T21:48:43.395Z,19.74
2023-10-23T21:51:11.604Z,19.73
2023-10-23T21:53:40.445Z,19.73
2023-10-23T21:56:09.745Z,19.72
2023-10-23T21:59:03.670Z,19.73
2023-10-23T22:01:29.367Z,19.71
2023-10-23T22:04:00.062Z,19.70
2023-10-23T22:06:28.990Z,19.69
2023-10-23T22:08:57.670Z,19.70
2023-10-23T22:11:26.441Z,19.69
2023-10-23T22:13:55.187Z,19.69
2023-10-23T22:16:23.698Z,19.70
2023-10-23T22:18:52.143Z,19.70
2023-10-23T22:21:21.756Z,19.68
2023-10-23T22:23:49.966Z,19.67
2023-10-23T22:26:18.247Z,19.67
2023-10-23T22:28:46.857Z,19.64
2023-10-23T22:31:15.271Z,19.67
2023-10-23T22:33:43.686Z,19.67
2023-10-23T22:36:12.048Z,19.66
2023-10-23T22:38:41.858Z,19.65
2023-10-23T22:41:10.151Z,19.65
2023-10-23T22:43:38.391Z,19.65
2023-10-23T22:46:07.230Z,19.66
2023-10-23T22:48:35.497Z,19.65
2023-10-23T22:51:04.031Z,19.65
2023-10-23T22:53:34.173Z,19.65
2023-10-23T22:56:04.811Z,19.66
2023-10-23T22:58:34.841Z,19.65
2023-10-23T23:01:03.765Z,19.66
2023-10-23T23:03:33.005Z,19.65
2023-10-23T23:06:06.879Z,19.65
2023-10-23T23:08:40.501Z,19.48
2023-10-23T23:11:10.966Z,19.65
2023-10-23T23:13:39.907Z,19.61
2023-10-23T23:16:09.168Z,19.64
2023-10-23T23:18:40.342Z,19.65
2023-10-23T23:21:09.737Z,19.64
2023-10-23T23:23:37.959Z,19.65
2023-10-23T23:26:06.492Z,19.62
2023-10-23T23:28:36.944Z,19.65
2023-10-23T23:31:05.286Z,19.65
2023-10-23T23:33:33.838Z,19.66
2023-10-23T23:36:02.767Z,19.60
2023-10-23T23:38:31.117Z,19.65
2023-10-23T23:40:59.416Z,19.65
2023-10-23T23:43:27.719Z,19.65
2023-10-23T23:45:58.502Z,19.65
2023-10-23T23:48:26.792Z,19.64
2023-10-23T23:50:55.015Z,19.65
2023-10-23T23:53:23.257Z,19.65
2023-10-23T23:55:51.487Z,19.62
2023-10-23T23:58:20.254Z,19.65
